Time;durP1;ratioP1;P1;durP2;ratioP2;P2;SDS_P1;SDS_P2;PMS_P1;PMS_P2;Temp;Humidity;BMP_temperature;BMP_pressure;BME280_temperature;BME280_humidity;BME280_pressure;Samples;Min_cycle;Max_cycle;Signal;HPM_P1;HPM_P2
2023/06/18 00:02:00;;;;;;;10.95;6.60;;;;;;;;;;4977751;28;20596;-77
2023/06/18 00:04:25;;;;;;;8.10;6.00;;;;;;;;;;4978017;28;20033;-78
2023/06/18 00:06:51;;;;;;;8.00;6.15;;;;;;;;;;4977593;28;20022;-78
2023/06/18 00:09:16;;;;;;;8.25;6.22;;;;;;;;;;4978274;28;20060;-78
2023/06/18 00:11:42;;;;;;;8.97;6.50;;;;;;;;;;4977539;28;20034;-79
2023/06/18 00:14:09;;;;;;;7.27;5.90;;;;;;;;;;4979626;28;20315;-78
2023/06/18 00:16:37;;;;;;;8.27;5.88;;;;;;;;;;4979792;28;20279;-79
2023/06/18 00:19:02;;;;;;;8.20;6.40;;;;;;;;;;4978321;28;20046;-79
2023/06/18 00:21:27;;;;;;;6.50;5.40;;;;;;;;;;4961313;28;20058;-79
2023/06/18 00:23:52;;;;;;;7.70;5.40;;;;;;;;;;4961859;28;20034;-77
2023/06/18 00:26:18;;;;;;;6.90;5.65;;;;;;;;;;4979032;28;20283;-78
2023/06/18 00:28:45;;;;;;;8.30;6.15;;;;;;;;;;4978456;28;20031;-78
2023/06/18 00:31:11;;;;;;;8.05;5.65;;;;;;;;;;4961663;28;20486;-78
2023/06/18 00:33:37;;;;;;;8.30;6.15;;;;;;;;;;4977874;28;20042;-78
2023/06/18 00:36:04;;;;;;;8.15;6.07;;;;;;;;;;4979233;28;20493;-78
2023/06/18 00:38:32;;;;;;;8.50;5.85;;;;;;;;;;4976733;28;20042;-78
2023/06/18 00:40:58;;;;;;;8.73;5.75;;;;;;;;;;4977325;28;20448;-78
2023/06/18 00:43:23;;;;;;;8.50;5.45;;;;;;;;;;4960024;28;20026;-77
2023/06/18 00:45:48;;;;;;;6.43;5.17;;;;;;;;;;4976702;28;20037;-78
2023/06/18 00:48:14;;;;;;;8.55;5.70;;;;;;;;;;4959695;28;20264;-78
2023/06/18 00:50:42;;;;;;;7.15;5.57;;;;;;;;;;4961133;28;20029;-78
2023/06/18 00:53:09;;;;;;;6.43;5.60;;;;;;;;;;4977455;28;20034;-78
2023/06/18 00:55:39;;;;;;;6.93;5.65;;;;;;;;;;4976714;28;20019;-79
2023/06/18 00:58:04;;;;;;;7.25;5.55;;;;;;;;;;4958869;28;20031;-78
2023/06/18 01:00:34;;;;;;;8.48;6.15;;;;;;;;;;4978852;28;20038;-78
2023/06/18 01:03:02;;;;;;;8.30;5.60;;;;;;;;;;4958494;28;20026;-77
2023/06/18 01:05:31;;;;;;;9.13;6.20;;;;;;;;;;4975351;28;20050;-78
2023/06/18 01:07:57;;;;;;;8.02;6.03;;;;;;;;;;4961058;28;20031;-79
2023/06/18 01:10:29;;;;;;;7.07;5.38;;;;;;;;;;4977158;28;20026;-78
2023/06/18 01:12:57;;;;;;;7.28;6.20;;;;;;;;;;4979037;28;20030;-78
2023/06/18 01:15:26;;;;;;;6.60;5.72;;;;;;;;;;4975895;28;20617;-78
2023/06/18 01:17:56;;;;;;;8.68;6.18;;;;;;;;;;4978470;28;20101;-77
2023/06/18 01:20:25;;;;;;;8.23;5.85;;;;;;;;;;4980727;28;20026;-77
2023/06/18 01:22:57;;;;;;;7.03;5.50;;;;;;;;;;4984094;28;20458;-79
2023/06/18 01:25:25;;;;;;;8.15;6.30;;;;;;;;;;4984321;28;20474;-79
2023/06/18 01:27:53;;;;;;;6.95;5.65;;;;;;;;;;4966600;28;20030;-79
2023/06/18 01:30:19;;;;;;;7.07;5.70;;;;;;;;;;4966267;28;20019;-78
2023/06/18 01:32:44;;;;;;;6.70;5.85;;;;;;;;;;4976832;28;20466;-79
2023/06/18 01:35:16;;;;;;;8.73;5.90;;;;;;;;;;4976920;28;20085;-77
2023/06/18 01:37:55;;;;;;;7.60;5.75;;;;;;;;;;4960592;28;20038;-78
2023/06/18 01:40:31;;;;;;;9.10;6.38;;;;;;;;;;4978554;28;20031;-79
2023/06/18 01:43:16;;;;;;;10.38;5.85;;;;;;;;;;4978251;28;20478;-78
2023/06/18 01:45:50;;;;;;;10.38;5.53;;;;;;;;;;4974519;28;20509;-78
2023/06/18 01:48:19;;;;;;;9.10;5.82;;;;;;;;;;4978676;28;20110;-78
2023/06/18 01:50:47;;;;;;;6.82;5.68;;;;;;;;;;4978331;28;20490;-79
2023/06/18 01:53:16;;;;;;;7.50;5.47;;;;;;;;;;4960684;28;20027;-79
2023/06/18 01:55:44;;;;;;;6.60;5.25;;;;;;;;;;4978147;28;20023;-78
2023/06/18 01:58:10;;;;;;;8.02;5.63;;;;;;;;;;4975368;28;20081;-78
2023/06/18 02:00:36;;;;;;;6.95;5.75;;;;;;;;;;4975672;28;20073;-77
2023/06/18 02:03:01;;;;;;;8.20;5.53;;;;;;;;;;4976203;28;20022;-78
2023/06/18 02:05:26;;;;;;;7.60;5.40;;;;;;;;;;4975319;28;20031;-78
2023/06/18 02:07:51;;;;;;;6.72;5.25;;;;;;;;;;4974816;28;20127;-78
2023/06/18 02:10:17;;;;;;;9.73;5.77;;;;;;;;;;4976198;28;20034;-78
2023/06/18 02:12:42;;;;;;;8.93;5.60;;;;;;;;;;4976236;28;20260;-79
2023/06/18 02:15:07;;;;;;;5.80;5.13;;;;;;;;;;4974830;28;20584;-78
2023/06/18 02:17:33;;;;;;;9.82;5.75;;;;;;;;;;4975308;28;20260;-78
2023/06/18 02:19:58;;;;;;;6.97;5.90;;;;;;;;;;4976426;28;20034;-79
2023/06/18 02:22:24;;;;;;;6.40;4.93;;;;;;;;;;4982831;28;20279;-79
2023/06/18 02:24:49;;;;;;;8.48;5.15;;;;;;;;;;4981845;28;20034;-78
2023/06/18 02:27:14;;;;;;;7.57;5.20;;;;;;;;;;4981164;28;20122;-78
2023/06/18 02:29:41;;;;;;;8.98;5.25;;;;;;;;;;4979679;28;20406;-77
2023/06/18 02:32:07;;;;;;;5.18;4.68;;;;;;;;;;4977979;28;20041;-78
2023/06/18 02:34:32;;;;;;;6.05;5.43;;;;;;;;;;4961396;28;20463;-77
2023/06/18 02:36:57;;;;;;;7.22;4.70;;;;;;;;;;4980364;28;20390;-78
2023/06/18 02:39:22;;;;;;;6.07;4.70;;;;;;;;;;4981855;28;20051;-78
2023/06/18 02:41:48;;;;;;;7.32;4.97;;;;;;;;;;4981680;28;20272;-77
2023/06/18 02:44:13;;;;;;;7.53;5.45;;;;;;;;;;4980915;28;20061;-78
2023/06/18 02:46:38;;;;;;;7.27;5.40;;;;;;;;;;4981983;28;20504;-78
2023/06/18 02:49:03;;;;;;;6.28;4.93;;;;;;;;;;4980822;28;20807;-78
2023/06/18 02:51:29;;;;;;;5.72;5.07;;;;;;;;;;4963597;28;20030;-79
2023/06/18 02:53:54;;;;;;;6.15;5.30;;;;;;;;;;4978987;28;20030;-79
2023/06/18 02:56:21;;;;;;;10.65;5.60;;;;;;;;;;4981444;28;20479;-79
2023/06/18 02:58:49;;;;;;;7.35;4.70;;;;;;;;;;4982056;28;20026;-78
2023/06/18 03:01:17;;;;;;;7.90;5.25;;;;;;;;;;4981619;28;20421;-78
2023/06/18 03:03:42;;;;;;;12.80;5.90;;;;;;;;;;4981253;28;20114;-79
2023/06/18 03:06:07;;;;;;;6.03;4.73;;;;;;;;;;4980645;28;20055;-78
2023/06/18 03:08:33;;;;;;;7.57;5.00;;;;;;;;;;4978690;28;20295;-76
2023/06/18 03:10:58;;;;;;;9.30;5.53;;;;;;;;;;4978610;28;20265;-78
2023/06/18 03:13:23;;;;;;;7.43;5.03;;;;;;;;;;4978291;28;20269;-78
2023/06/18 03:15:48;;;;;;;7.17;5.03;;;;;;;;;;4976645;28;20391;-78
2023/06/18 03:18:14;;;;;;;6.85;4.93;;;;;;;;;;4976956;28;20624;-77
2023/06/18 03:20:39;;;;;;;6.23;5.23;;;;;;;;;;4976951;28;20031;-78
2023/06/18 03:23:05;;;;;;;6.50;4.87;;;;;;;;;;4976067;28;20299;-78
2023/06/18 03:25:30;;;;;;;6.75;5.30;;;;;;;;;;4977001;28;20308;-78
2023/06/18 03:27:55;;;;;;;6.32;4.97;;;;;;;;;;4977525;28;20027;-77
2023/06/18 03:30:21;;;;;;;6.80;5.23;;;;;;;;;;4960294;28;20038;-78
2023/06/18 03:32:47;;;;;;;6.45;5.07;;;;;;;;;;4977994;28;20257;-77
2023/06/18 03:35:12;;;;;;;6.20;4.93;;;;;;;;;;4978026;28;20018;-78
2023/06/18 03:37:37;;;;;;;5.77;4.93;;;;;;;;;;4978828;28;20389;-79
2023/06/18 03:40:03;;;;;;;6.60;5.03;;;;;;;;;;4960223;28;20647;-77
2023/06/18 03:42:29;;;;;;;5.45;4.82;;;;;;;;;;4977404;28;20263;-77
2023/06/18 03:44:54;;;;;;;5.90;5.00;;;;;;;;;;4978052;28;20026;-78
2023/06/18 03:47:19;;;;;;;7.43;4.80;;;;;;;;;;4979672;28;20026;-78
2023/06/18 03:49:45;;;;;;;6.60;4.78;;;;;;;;;;4978468;28;20323;-79
2023/06/18 03:52:10;;;;;;;5.93;4.30;;;;;;;;;;4980260;28;20046;-78
2023/06/18 03:54:35;;;;;;;8.23;4.72;;;;;;;;;;4962533;28;20242;-78
2023/06/18 03:57:01;;;;;;;5.95;4.90;;;;;;;;;;4978041;28;20465;-79
2023/06/18 03:59:27;;;;;;;5.18;4.53;;;;;;;;;;4979924;28;20031;-79
2023/06/18 04:01:52;;;;;;;21.48;5.53;;;;;;;;;;4976038;28;20035;-77
2023/06/18 04:04:17;;;;;;;5.93;5.10;;;;;;;;;;4977427;28;20026;-78
2023/06/18 04:06:43;;;;;;;9.75;5.15;;;;;;;;;;4976971;28;20260;-77
2023/06/18 04:09:08;;;;;;;7.03;4.75;;;;;;;;;;4959974;28;20034;-79
2023/06/18 04:11:36;;;;;;;6.50;4.85;;;;;;;;;;4979508;28;20049;-77
2023/06/18 04:14:01;;;;;;;6.07;4.70;;;;;;;;;;4961443;28;20042;-78
2023/06/18 04:16:26;;;;;;;5.47;4.43;;;;;;;;;;4976251;28;20034;-77
2023/06/18 04:18:51;;;;;;;6.57;4.97;;;;;;;;;;4976123;28;20249;-78
2023/06/18 04:21:17;;;;;;;6.13;4.20;;;;;;;;;;4975867;28;20311;-77
2023/06/18 04:23:42;;;;;;;6.33;4.60;;;;;;;;;;4977008;28;20351;-77
2023/06/18 04:26:07;;;;;;;5.40;4.40;;;;;;;;;;4979147;28;20317;-80
2023/06/18 04:28:33;;;;;;;5.80;4.30;;;;;;;;;;4960415;28;20030;-78
2023/06/18 04:30:58;;;;;;;5.17;4.50;;;;;;;;;;4960548;28;20069;-78
2023/06/18 04:33:24;;;;;;;5.83;4.30;;;;;;;;;;4977199;28;20257;-78
2023/06/18 04:35:49;;;;;;;5.57;4.45;;;;;;;;;;4978235;28;20244;-78
2023/06/18 04:38:15;;;;;;;5.75;4.57;;;;;;;;;;4977655;28;20042;-78
2023/06/18 04:40:40;;;;;;;5.67;4.63;;;;;;;;;;4976746;28;20054;-79
2023/06/18 04:43:05;;;;;;;7.00;4.50;;;;;;;;;;4976936;28;20248;-78
2023/06/18 04:45:31;;;;;;;5.85;4.45;;;;;;;;;;4977064;28;20284;-77
2023/06/18 04:47:56;;;;;;;7.10;5.35;;;;;;;;;;4977291;28;20085;-78
2023/06/18 04:50:21;;;;;;;6.03;4.57;;;;;;;;;;4975217;28;20019;-77
2023/06/18 04:52:47;;;;;;;5.97;4.82;;;;;;;;;;4978082;28;20059;-78
2023/06/18 04:55:12;;;;;;;5.47;4.60;;;;;;;;;;4977134;28;20023;-80
2023/06/18 04:57:37;;;;;;;5.05;4.45;;;;;;;;;;4960521;28;20027;-77
2023/06/18 05:00:04;;;;;;;5.07;4.55;;;;;;;;;;4977932;28;20054;-76
2023/06/18 05:02:30;;;;;;;5.47;4.70;;;;;;;;;;4975905;28;20118;-77
2023/06/18 05:04:55;;;;;;;7.72;4.88;;;;;;;;;;4978354;28;20051;-78
2023/06/18 05:07:20;;;;;;;6.57;4.90;;;;;;;;;;4979107;28;20030;-78
2023/06/18 05:09:45;;;;;;;5.40;4.57;;;;;;;;;;4977830;28;20811;-78
2023/06/18 05:12:11;;;;;;;6.47;4.90;;;;;;;;;;4976116;28;20026;-78
2023/06/18 05:14:36;;;;;;;8.00;4.55;;;;;;;;;;4979059;28;20257;-78
2023/06/18 05:17:01;;;;;;;9.73;4.50;;;;;;;;;;4979468;28;20058;-78
2023/06/18 05:19:26;;;;;;;5.73;4.53;;;;;;;;;;4978272;28;20510;-77
2023/06/18 05:21:52;;;;;;;5.40;4.73;;;;;;;;;;4976054;28;20755;-78
2023/06/18 05:24:17;;;;;;;6.13;4.57;;;;;;;;;;4975442;28;20744;-78
2023/06/18 05:26:43;;;;;;;7.27;5.10;;;;;;;;;;4976548;28;20602;-79
2023/06/18 05:29:08;;;;;;;6.65;4.63;;;;;;;;;;4959832;28;20253;-77
2023/06/18 05:31:33;;;;;;;7.43;4.68;;;;;;;;;;4977805;28;20098;-78
2023/06/18 05:33:59;;;;;;;7.50;4.78;;;;;;;;;;4976438;28;20058;-78
2023/06/18 05:36:25;;;;;;;5.60;4.47;;;;;;;;;;4976751;28;20508;-77
2023/06/18 05:38:52;;;;;;;7.82;4.80;;;;;;;;;;4977125;28;20070;-79
2023/06/18 05:41:17;;;;;;;7.80;4.70;;;;;;;;;;4960402;28;20037;-79
2023/06/18 05:43:43;;;;;;;5.63;4.53;;;;;;;;;;4978864;28;20023;-78
2023/06/18 05:46:08;;;;;;;5.40;4.87;;;;;;;;;;4961151;28;20041;-79
2023/06/18 05:48:33;;;;;;;11.05;4.65;;;;;;;;;;4978493;28;20252;-78
2023/06/18 05:50:58;;;;;;;5.83;4.43;;;;;;;;;;4979065;28;20458;-78
2023/06/18 05:53:23;;;;;;;6.10;4.73;;;;;;;;;;4978037;28;20621;-78
2023/06/18 05:55:49;;;;;;;5.37;4.40;;;;;;;;;;4978341;28;20628;-76
2023/06/18 05:58:14;;;;;;;7.97;4.80;;;;;;;;;;4980571;28;20268;-79
2023/06/18 06:00:39;;;;;;;7.20;4.25;;;;;;;;;;4980674;28;20605;-77
2023/06/18 06:03:05;;;;;;;7.50;4.70;;;;;;;;;;4981166;28;20037;-78
2023/06/18 06:05:30;;;;;;;6.13;4.87;;;;;;;;;;4981867;28;20023;-78
2023/06/18 06:07:56;;;;;;;6.55;4.55;;;;;;;;;;4963588;28;20260;-78
2023/06/18 06:10:22;;;;;;;5.38;4.47;;;;;;;;;;4963322;28;20521;-77
2023/06/18 06:12:48;;;;;;;5.68;4.78;;;;;;;;;;4980970;28;20027;-78
2023/06/18 06:15:13;;;;;;;7.53;4.75;;;;;;;;;;4981437;28;20033;-78
2023/06/18 06:17:38;;;;;;;5.80;4.63;;;;;;;;;;4963480;28;20027;-78
2023/06/18 06:20:04;;;;;;;5.33;4.30;;;;;;;;;;4980055;28;20035;-78
2023/06/18 06:22:29;;;;;;;5.53;4.28;;;;;;;;;;4978809;28;20264;-78
2023/06/18 06:24:57;;;;;;;7.25;4.50;;;;;;;;;;4980232;28;20027;-77
2023/06/18 06:27:23;;;;;;;6.30;4.40;;;;;;;;;;4979264;28;20027;-78
2023/06/18 06:29:48;;;;;;;5.28;3.83;;;;;;;;;;4980171;28;20029;-77
2023/06/18 06:32:16;;;;;;;5.93;4.50;;;;;;;;;;4978042;28;20412;-77
2023/06/18 06:34:47;;;;;;;7.10;4.38;;;;;;;;;;4979638;28;20343;-78
2023/06/18 06:37:12;;;;;;;5.40;4.43;;;;;;;;;;4977124;28;20092;-77
2023/06/18 06:39:37;;;;;;;4.97;4.35;;;;;;;;;;4980334;28;20406;-77
2023/06/18 06:42:03;;;;;;;5.40;4.20;;;;;;;;;;4977394;28;20026;-78
2023/06/18 06:44:28;;;;;;;5.60;4.30;;;;;;;;;;4979437;28;20263;-79
2023/06/18 06:46:54;;;;;;;5.37;4.27;;;;;;;;;;4963553;28;20019;-79
2023/06/18 06:49:19;;;;;;;8.20;4.60;;;;;;;;;;4980526;28;20340;-78
2023/06/18 06:51:44;;;;;;;6.23;4.40;;;;;;;;;;4962555;28;20303;-78
2023/06/18 06:54:10;;;;;;;6.47;4.73;;;;;;;;;;4979431;28;20265;-78
2023/06/18 06:56:36;;;;;;;5.68;3.88;;;;;;;;;;4977532;28;20288;-78
2023/06/18 06:59:01;;;;;;;6.72;4.57;;;;;;;;;;4977788;28;20026;-78
2023/06/18 07:01:26;;;;;;;5.53;4.32;;;;;;;;;;4977814;28;20031;-77
2023/06/18 07:03:52;;;;;;;6.65;4.45;;;;;;;;;;4978402;28;20101;-78
2023/06/18 07:06:17;;;;;;;6.50;4.88;;;;;;;;;;4976150;28;20031;-77
2023/06/18 07:08:42;;;;;;;8.45;4.75;;;;;;;;;;4960215;28;20026;-77
2023/06/18 07:11:08;;;;;;;6.57;4.50;;;;;;;;;;4979431;28;20022;-78
2023/06/18 07:13:33;;;;;;;4.70;4.20;;;;;;;;;;4963059;28;20263;-79
2023/06/18 07:15:59;;;;;;;7.45;4.20;;;;;;;;;;4962177;28;20054;-79
2023/06/18 07:18:24;;;;;;;6.70;4.40;;;;;;;;;;4980006;28;20056;-79
2023/06/18 07:20:49;;;;;;;4.83;4.00;;;;;;;;;;4962567;28;20411;-77
2023/06/18 07:23:14;;;;;;;5.73;4.20;;;;;;;;;;4979352;28;20700;-77
2023/06/18 07:25:40;;;;;;;5.10;3.77;;;;;;;;;;4981024;28;20812;-77
2023/06/18 07:28:05;;;;;;;6.37;4.20;;;;;;;;;;4980480;28;20601;-77
2023/06/18 07:30:30;;;;;;;7.60;4.38;;;;;;;;;;4977513;28;20264;-78
2023/06/18 07:32:55;;;;;;;5.97;4.10;;;;;;;;;;4979208;28;20034;-79
2023/06/18 07:35:21;;;;;;;6.17;4.30;;;;;;;;;;4978165;28;20015;-79
2023/06/18 07:37:47;;;;;;;5.00;4.03;;;;;;;;;;4978410;28;20306;-78
2023/06/18 07:40:12;;;;;;;5.53;4.35;;;;;;;;;;4978086;28;20348;-78
2023/06/18 07:42:37;;;;;;;4.38;3.97;;;;;;;;;;4979671;28;20031;-79
2023/06/18 07:45:03;;;;;;;5.53;4.20;;;;;;;;;;4962370;28;20026;-79
2023/06/18 07:47:28;;;;;;;5.47;4.25;;;;;;;;;;4979389;28;20272;-79
2023/06/18 07:49:54;;;;;;;5.60;3.97;;;;;;;;;;4978953;28;20031;-78
2023/06/18 07:52:19;;;;;;;5.00;4.45;;;;;;;;;;4961860;28;20297;-78
2023/06/18 07:54:44;;;;;;;5.18;4.60;;;;;;;;;;4979771;28;20385;-78
2023/06/18 07:57:09;;;;;;;6.32;4.50;;;;;;;;;;4979049;28;20057;-78
2023/06/18 07:59:35;;;;;;;6.13;4.40;;;;;;;;;;4979024;28;20030;-79
2023/06/18 08:02:00;;;;;;;7.37;4.70;;;;;;;;;;4962657;28;20272;-79
2023/06/18 08:04:25;;;;;;;5.57;4.40;;;;;;;;;;4979224;28;20261;-78
2023/06/18 08:06:50;;;;;;;11.55;4.55;;;;;;;;;;4979163;28;20105;-79
2023/06/18 08:09:17;;;;;;;5.72;4.28;;;;;;;;;;4978784;28;20035;-79
2023/06/18 08:11:43;;;;;;;12.02;6.55;;;;;;;;;;4977655;28;20030;-78
2023/06/18 08:14:08;;;;;;;7.53;5.10;;;;;;;;;;4978891;28;20027;-79
2023/06/18 08:16:33;;;;;;;6.88;4.60;;;;;;;;;;4978853;28;20086;-78
2023/06/18 08:18:59;;;;;;;10.38;6.07;;;;;;;;;;4961447;28;20030;-79
2023/06/18 08:21:24;;;;;;;5.80;4.60;;;;;;;;;;4979110;28;20058;-79
2023/06/18 08:23:50;;;;;;;6.18;4.47;;;;;;;;;;4978814;28;20494;-77
2023/06/18 08:26:16;;;;;;;5.07;4.28;;;;;;;;;;4977752;28;20034;-78
2023/06/18 08:28:41;;;;;;;5.07;3.70;;;;;;;;;;4978058;28;20023;-79
2023/06/18 08:31:06;;;;;;;7.28;4.15;;;;;;;;;;4960732;28;20082;-78
2023/06/18 08:33:31;;;;;;;5.10;4.23;;;;;;;;;;4981902;28;20056;-79
2023/06/18 08:35:57;;;;;;;7.83;4.63;;;;;;;;;;4981671;28;20315;-78
2023/06/18 08:38:22;;;;;;;9.57;5.50;;;;;;;;;;4981131;28;20276;-78
2023/06/18 08:40:54;;;;;;;12.38;6.32;;;;;;;;;;4962635;28;20322;-78
2023/06/18 08:43:26;;;;;;;7.18;5.03;;;;;;;;;;4965551;28;20038;-79
2023/06/18 08:45:51;;;;;;;8.23;4.97;;;;;;;;;;4979100;28;20093;-79
2023/06/18 08:48:26;;;;;;;7.00;4.90;;;;;;;;;;4979058;28;20441;-79
2023/06/18 08:51:05;;;;;;;14.07;8.20;;;;;;;;;;4962511;28;20490;-79
2023/06/18 08:53:49;;;;;;;7.53;5.07;;;;;;;;;;4978735;28;20030;-79
2023/06/18 08:56:16;;;;;;;5.72;4.45;;;;;;;;;;4980341;28;20026;-80
2023/06/18 08:58:50;;;;;;;8.98;4.50;;;;;;;;;;4977617;28;20031;-80
2023/06/18 09:01:16;;;;;;;5.25;4.20;;;;;;;;;;4978983;28;20022;-79
2023/06/18 09:03:42;;;;;;;5.00;4.18;;;;;;;;;;4980909;28;20030;-79
2023/06/18 09:06:08;;;;;;;6.30;4.30;;;;;;;;;;4980730;28;20046;-79
2023/06/18 09:08:33;;;;;;;6.07;4.23;;;;;;;;;;4982155;28;20031;-79
2023/06/18 09:11:00;;;;;;;8.35;5.32;;;;;;;;;;4980705;28;20315;-80
2023/06/18 09:13:25;;;;;;;6.45;4.20;;;;;;;;;;4978382;28;20516;-80
2023/06/18 09:15:50;;;;;;;20.15;6.40;;;;;;;;;;4977223;28;20031;-80
2023/06/18 09:18:16;;;;;;;5.63;4.43;;;;;;;;;;4977565;28;20027;-79
2023/06/18 09:20:42;;;;;;;9.98;4.68;;;;;;;;;;4977737;28;20041;-80
2023/06/18 09:23:11;;;;;;;5.03;4.13;;;;;;;;;;4977843;28;20086;-83
2023/06/18 09:25:36;;;;;;;4.82;3.78;;;;;;;;;;4965981;28;20033;-80
2023/06/18 09:28:02;;;;;;;8.25;5.25;;;;;;;;;;4977629;28;20023;-81
2023/06/18 09:30:28;;;;;;;9.23;5.43;;;;;;;;;;4977080;28;20165;-79
2023/06/18 09:32:57;;;;;;;14.63;6.85;;;;;;;;;;4977373;28;20054;-81
2023/06/18 09:35:22;;;;;;;7.55;4.65;;;;;;;;;;4977749;28;20024;-79
2023/06/18 09:37:48;;;;;;;7.55;5.10;;;;;;;;;;4977263;28;20089;-81
2023/06/18 09:40:18;;;;;;;7.13;3.92;;;;;;;;;;4977106;28;20031;-80
2023/06/18 09:42:44;;;;;;;7.40;4.65;;;;;;;;;;4977175;28;20030;-79
2023/06/18 09:45:10;;;;;;;6.82;5.20;;;;;;;;;;4977333;28;20170;-79
2023/06/18 09:47:41;;;;;;;9.70;7.22;;;;;;;;;;4977677;28;20113;-81
2023/06/18 09:50:08;;;;;;;5.95;4.75;;;;;;;;;;4959965;28;20117;-80
2023/06/18 09:52:51;;;;;;;6.93;5.18;;;;;;;;;;4977549;28;20036;-80
2023/06/18 09:55:32;;;;;;;5.65;4.85;;;;;;;;;;4977378;28;20026;-80
2023/06/18 09:57:59;;;;;;;6.65;4.63;;;;;;;;;;4959460;28;20041;-80
2023/06/18 10:00:25;;;;;;;6.95;4.63;;;;;;;;;;4977719;28;20027;-79
2023/06/18 10:02:51;;;;;;;5.93;4.50;;;;;;;;;;4977028;28;20401;-80
2023/06/18 10:05:16;;;;;;;7.28;4.75;;;;;;;;;;4977433;28;20034;-79
2023/06/18 10:07:42;;;;;;;7.68;4.97;;;;;;;;;;4977149;28;20085;-80
2023/06/18 10:10:13;;;;;;;5.88;4.68;;;;;;;;;;4977361;28;20027;-80
2023/06/18 10:12:41;;;;;;;5.43;4.43;;;;;;;;;;4977475;28;20033;-82
2023/06/18 10:15:08;;;;;;;6.43;5.07;;;;;;;;;;4976735;28;20387;-81
2023/06/18 10:17:37;;;;;;;6.30;4.55;;;;;;;;;;4977269;28;20486;-80
2023/06/18 10:20:07;;;;;;;7.60;4.82;;;;;;;;;;4977533;28;20046;-81
2023/06/18 10:22:41;;;;;;;7.07;4.70;;;;;;;;;;4977386;28;20402;-81
2023/06/18 10:25:07;;;;;;;6.47;4.63;;;;;;;;;;4977431;28;20034;-80
2023/06/18 10:27:34;;;;;;;8.07;4.78;;;;;;;;;;4977296;28;20037;-80
2023/06/18 10:29:59;;;;;;;6.60;5.00;;;;;;;;;;4959149;28;20123;-81
2023/06/18 10:32:26;;;;;;;8.13;4.82;;;;;;;;;;4959580;28;20046;-79
2023/06/18 10:34:53;;;;;;;5.88;4.72;;;;;;;;;;4976822;28;20019;-79
2023/06/18 10:37:20;;;;;;;7.28;4.80;;;;;;;;;;4977162;28;20485;-80
2023/06/18 10:39:47;;;;;;;6.53;4.80;;;;;;;;;;4977384;28;20074;-81
2023/06/18 10:42:14;;;;;;;6.65;4.25;;;;;;;;;;4961502;28;20023;-80
2023/06/18 10:44:59;;;;;;;7.18;4.20;;;;;;;;;;4981153;28;20394;-80
2023/06/18 10:47:26;;;;;;;6.20;4.60;;;;;;;;;;4980388;28;20038;-80
2023/06/18 10:50:04;;;;;;;5.20;4.25;;;;;;;;;;4963163;28;20049;-79
2023/06/18 10:52:34;;;;;;;5.22;4.38;;;;;;;;;;4980304;28;20026;-80
2023/06/18 10:55:20;;;;;;;5.70;4.05;;;;;;;;;;4979934;28;20023;-79
2023/06/18 10:57:47;;;;;;;6.75;4.28;;;;;;;;;;4980357;28;20110;-79
2023/06/18 11:00:15;;;;;;;7.95;4.38;;;;;;;;;;4962037;28;20499;-79
2023/06/18 11:02:41;;;;;;;8.45;4.68;;;;;;;;;;4979131;28;20482;-79
2023/06/18 11:05:07;;;;;;;6.38;4.43;;;;;;;;;;4979291;28;20107;-80
2023/06/18 11:07:32;;;;;;;6.55;4.70;;;;;;;;;;4979811;28;20050;-80
2023/06/18 11:09:59;;;;;;;5.22;4.40;;;;;;;;;;4977719;28;20389;-79
2023/06/18 11:12:27;;;;;;;6.93;4.85;;;;;;;;;;4977605;28;20031;-80
2023/06/18 11:15:13;;;;;;;5.88;4.40;;;;;;;;;;4978795;28;20474;-80
2023/06/18 11:17:40;;;;;;;5.70;4.20;;;;;;;;;;4979139;28;20041;-79
2023/06/18 11:20:06;;;;;;;6.32;4.03;;;;;;;;;;4979001;28;20023;-80
2023/06/18 11:22:31;;;;;;;6.90;4.60;;;;;;;;;;4978869;28;20110;-78
2023/06/18 11:24:58;;;;;;;6.97;4.38;;;;;;;;;;4978287;28;20062;-79
2023/06/18 11:27:24;;;;;;;7.03;4.30;;;;;;;;;;4979523;28;20565;-79
2023/06/18 11:29:50;;;;;;;5.15;4.05;;;;;;;;;;4961903;28;20405;-80
2023/06/18 11:32:15;;;;;;;6.25;4.28;;;;;;;;;;4979416;28;20031;-79
2023/06/18 11:34:44;;;;;;;5.88;4.30;;;;;;;;;;4979363;28;20034;-80
2023/06/18 11:37:10;;;;;;;5.95;4.65;;;;;;;;;;4978730;28;20019;-81
2023/06/18 11:39:36;;;;;;;6.65;4.55;;;;;;;;;;4979239;28;20026;-79
2023/06/18 11:42:14;;;;;;;7.30;4.13;;;;;;;;;;4978800;28;20398;-79
2023/06/18 11:44:50;;;;;;;4.78;4.00;;;;;;;;;;4978465;28;20022;-80
2023/06/18 11:47:16;;;;;;;5.28;4.20;;;;;;;;;;4978530;28;20035;-79
2023/06/18 11:49:44;;;;;;;7.10;4.45;;;;;;;;;;4978772;28;20037;-79
2023/06/18 11:52:12;;;;;;;7.97;4.72;;;;;;;;;;4978539;28;20090;-79
2023/06/18 11:54:41;;;;;;;8.23;4.60;;;;;;;;;;4978452;28;20482;-80
2023/06/18 11:57:09;;;;;;;5.80;4.85;;;;;;;;;;4961193;28;20446;-79
2023/06/18 11:59:35;;;;;;;5.65;4.50;;;;;;;;;;4978677;28;20113;-79
2023/06/18 12:02:17;;;;;;;6.13;4.43;;;;;;;;;;4977507;28;20473;-80
2023/06/18 12:04:43;;;;;;;6.53;4.70;;;;;;;;;;4978426;28;20030;-80
2023/06/18 12:07:15;;;;;;;6.10;4.70;;;;;;;;;;4960703;28;20078;-79
2023/06/18 12:09:40;;;;;;;10.40;4.57;;;;;;;;;;4979233;28;20027;-80
2023/06/18 12:12:14;;;;;;;6.35;4.35;;;;;;;;;;4978554;28;20063;-79
2023/06/18 12:15:00;;;;;;;6.13;4.57;;;;;;;;;;4978939;28;20023;-79
2023/06/18 12:17:49;;;;;;;5.68;4.18;;;;;;;;;;4978622;28;20058;-79
2023/06/18 12:20:17;;;;;;;5.43;3.90;;;;;;;;;;4977159;28;20030;-79
2023/06/18 12:22:43;;;;;;;7.60;4.22;;;;;;;;;;4978436;28;20033;-79
2023/06/18 12:25:12;;;;;;;6.28;4.13;;;;;;;;;;4978044;28;20075;-81
2023/06/18 12:27:39;;;;;;;6.22;4.10;;;;;;;;;;4977974;28;20050;-79
2023/06/18 12:30:05;;;;;;;6.75;4.07;;;;;;;;;;4977910;28;20027;-80
2023/06/18 12:32:32;;;;;;;9.18;4.18;;;;;;;;;;4977657;28;20027;-79
2023/06/18 12:34:57;;;;;;;7.00;4.50;;;;;;;;;;4978165;28;20023;-80
2023/06/18 12:37:32;;;;;;;6.13;4.23;;;;;;;;;;4978425;28;20034;-78
2023/06/18 12:40:13;;;;;;;5.38;4.35;;;;;;;;;;4977982;28;20272;-80
2023/06/18 12:42:39;;;;;;;8.77;4.78;;;;;;;;;;4977768;28;20023;-80
2023/06/18 12:45:05;;;;;;;6.03;4.35;;;;;;;;;;4976326;28;20101;-79
2023/06/18 12:47:31;;;;;;;6.70;4.45;;;;;;;;;;4977131;28;20037;-80
2023/06/18 12:49:56;;;;;;;5.82;4.57;;;;;;;;;;4977746;28;20027;-79
2023/06/18 12:52:25;;;;;;;5.07;3.97;;;;;;;;;;4977371;28;20569;-79
2023/06/18 12:54:50;;;;;;;9.93;3.72;;;;;;;;;;4978149;28;20141;-78
2023/06/18 12:57:16;;;;;;;7.00;4.30;;;;;;;;;;4977753;28;20492;-78
2023/06/18 12:59:49;;;;;;;5.43;4.40;;;;;;;;;;4977387;28;20264;-80
2023/06/18 13:02:15;;;;;;;8.05;5.05;;;;;;;;;;4978146;28;20027;-79
2023/06/18 13:04:41;;;;;;;6.90;4.50;;;;;;;;;;4978059;28;20033;-78
2023/06/18 13:07:07;;;;;;;5.32;4.50;;;;;;;;;;4977688;28;20033;-80
2023/06/18 13:09:32;;;;;;;4.82;4.22;;;;;;;;;;4960287;28;20023;-78
2023/06/18 13:11:57;;;;;;;5.20;4.30;;;;;;;;;;4980800;28;20033;-79
2023/06/18 13:14:22;;;;;;;5.07;3.93;;;;;;;;;;4983188;28;20257;-80
2023/06/18 13:16:47;;;;;;;5.03;3.90;;;;;;;;;;4964513;28;20265;-80
2023/06/18 13:19:13;;;;;;;5.20;4.28;;;;;;;;;;4981079;28;20453;-81
2023/06/18 13:21:40;;;;;;;5.90;4.43;;;;;;;;;;4960659;28;20023;-78
2023/06/18 13:24:05;;;;;;;7.57;4.78;;;;;;;;;;4959914;28;20061;-79
2023/06/18 13:26:30;;;;;;;7.68;4.20;;;;;;;;;;4977335;28;20050;-79
2023/06/18 13:28:56;;;;;;;5.23;3.70;;;;;;;;;;4976989;28;20490;-81
2023/06/18 13:31:21;;;;;;;4.78;3.33;;;;;;;;;;4959481;28;20354;-79
2023/06/18 13:33:46;;;;;;;5.03;3.60;;;;;;;;;;4976240;28;20034;-80
2023/06/18 13:36:12;;;;;;;5.50;3.87;;;;;;;;;;4975788;28;20261;-79
2023/06/18 13:38:37;;;;;;;6.13;3.53;;;;;;;;;;4956034;28;20360;-80
2023/06/18 13:41:02;;;;;;;9.80;3.90;;;;;;;;;;4976763;28;20506;-78
2023/06/18 13:43:27;;;;;;;6.22;4.13;;;;;;;;;;4959319;28;20093;-78
2023/06/18 13:45:53;;;;;;;4.90;3.60;;;;;;;;;;4975034;28;20023;-78
2023/06/18 13:48:18;;;;;;;5.45;3.83;;;;;;;;;;4977303;28;20214;-79
2023/06/18 13:50:44;;;;;;;4.10;3.50;;;;;;;;;;4976984;28;20030;-78
2023/06/18 13:53:09;;;;;;;6.40;3.78;;;;;;;;;;4976559;28;20018;-80
2023/06/18 13:55:35;;;;;;;4.90;3.97;;;;;;;;;;4977101;28;20378;-78
2023/06/18 13:58:00;;;;;;;3.47;3.17;;;;;;;;;;4977247;28;20031;-78
2023/06/18 14:00:25;;;;;;;6.40;4.03;;;;;;;;;;4976093;28;20038;-78
2023/06/18 14:02:51;;;;;;;6.63;4.60;;;;;;;;;;4976574;28;20034;-78
2023/06/18 14:05:16;;;;;;;5.40;4.07;;;;;;;;;;4976530;28;20034;-80
2023/06/18 14:07:42;;;;;;;5.30;4.38;;;;;;;;;;4976484;28;20285;-80
2023/06/18 14:10:08;;;;;;;4.78;4.05;;;;;;;;;;4976689;28;20102;-80
2023/06/18 14:12:34;;;;;;;5.78;4.18;;;;;;;;;;4975873;28;20038;-80
2023/06/18 14:14:59;;;;;;;6.15;3.97;;;;;;;;;;4976682;28;20026;-79
2023/06/18 14:17:25;;;;;;;5.70;3.78;;;;;;;;;;4978485;28;20570;-80
2023/06/18 14:19:51;;;;;;;5.20;4.05;;;;;;;;;;4980447;28;20027;-80
2023/06/18 14:22:16;;;;;;;4.88;4.25;;;;;;;;;;4980643;28;20043;-80
2023/06/18 14:24:42;;;;;;;4.70;4.00;;;;;;;;;;4980164;28;20130;-79
2023/06/18 14:27:07;;;;;;;7.05;4.10;;;;;;;;;;4981949;28;20260;-80
2023/06/18 14:29:32;;;;;;;6.25;4.40;;;;;;;;;;4980586;28;20031;-78
2023/06/18 14:31:58;;;;;;;7.15;5.47;;;;;;;;;;4980190;28;20019;-79
2023/06/18 14:34:23;;;;;;;6.13;4.10;;;;;;;;;;4979988;28;20027;-79
2023/06/18 14:36:49;;;;;;;5.17;4.03;;;;;;;;;;4979994;28;20030;-78
2023/06/18 14:39:14;;;;;;;5.72;4.10;;;;;;;;;;4980003;28;20272;-79
2023/06/18 14:41:39;;;;;;;5.65;4.07;;;;;;;;;;4979986;28;20027;-79